createdAt,value
2022-11-30T00:00:08.199Z,2.20
2022-11-30T00:05:19.298Z,2.20
2022-11-30T00:10:22.328Z,2.30
2022-11-30T00:15:26.162Z,2.30
2022-11-30T00:20:30.072Z,2.30
2022-11-30T00:25:33.382Z,2.30
2022-11-30T00:30:36.086Z,2.30
2022-11-30T00:35:39.165Z,2.30
2022-11-30T00:40:41.848Z,2.30
2022-11-30T00:45:44.631Z,2.30
2022-11-30T00:50:47.269Z,2.20
2022-11-30T00:55:50.282Z,2.10
2022-11-30T01:00:52.920Z,2.30
2022-11-30T01:05:55.546Z,2.40
2022-11-30T01:10:58.620Z,2.40
2022-11-30T01:16:01.473Z,2.60
2022-11-30T01:21:04.273Z,2.70
2022-11-30T01:26:06.992Z,2.50
2022-11-30T01:31:09.706Z,2.60
2022-11-30T01:36:12.324Z,2.60
2022-11-30T01:41:14.941Z,2.70
2022-11-30T01:46:17.630Z,2.70
2022-11-30T01:51:20.328Z,2.50
2022-11-30T01:56:22.883Z,2.50
2022-11-30T02:01:29.707Z,2.40
2022-11-30T02:06:32.339Z,2.50
2022-11-30T02:11:35.085Z,2.50
2022-11-30T02:16:44.383Z,2.50
2022-11-30T02:21:47.050Z,2.50
2022-11-30T02:26:50.078Z,2.40
2022-11-30T02:31:52.931Z,2.40
2022-11-30T02:36:55.532Z,2.40
2022-11-30T02:41:58.312Z,2.50
2022-11-30T02:47:00.927Z,2.60
2022-11-30T02:52:03.535Z,2.50
2022-11-30T02:57:06.138Z,2.50
2022-11-30T03:02:08.727Z,2.50
2022-11-30T03:07:11.289Z,2.40
2022-11-30T03:12:13.868Z,2.40
2022-11-30T03:17:16.461Z,2.40
2022-11-30T03:22:19.051Z,2.40
2022-11-30T03:27:22.723Z,2.50
2022-11-30T03:32:25.404Z,2.30
2022-11-30T03:37:28.045Z,2.30
2022-11-30T03:42:30.860Z,2.40
2022-11-30T03:47:33.517Z,2.20
2022-11-30T03:52:36.208Z,2.20
2022-11-30T03:57:38.865Z,2.20
2022-11-30T04:02:44.702Z,2.30
2022-11-30T04:07:47.818Z,2.30
2022-11-30T04:12:50.397Z,2.30
2022-11-30T04:17:58.326Z,2.30
2022-11-30T04:23:01.325Z,2.40
2022-11-30T04:28:04.032Z,2.50
2022-11-30T04:33:06.623Z,2.40
2022-11-30T04:38:09.208Z,2.30
2022-11-30T04:43:11.802Z,2.40
2022-11-30T04:48:24.380Z,2.50
2022-11-30T04:53:27.040Z,2.40
2022-11-30T04:58:29.627Z,2.40
2022-11-30T05:03:32.179Z,2.40
2022-11-30T05:08:34.838Z,2.30
2022-11-30T05:13:37.463Z,2.30
2022-11-30T05:18:40.112Z,2.30
2022-11-30T05:23:42.740Z,2.30
2022-11-30T05:28:45.408Z,2.30
2022-11-30T05:33:48.049Z,2.30
2022-11-30T05:39:00.700Z,2.40
2022-11-30T05:44:03.380Z,2.50
2022-11-30T05:49:06.529Z,2.40
2022-11-30T05:54:09.185Z,2.40
2022-11-30T05:59:11.780Z,2.40
2022-11-30T06:04:14.391Z,2.50
2022-11-30T06:09:16.965Z,2.60
2022-11-30T06:14:19.534Z,2.70
2022-11-30T06:19:22.207Z,2.70
2022-11-30T06:24:25.217Z,2.80
2022-11-30T06:29:27.845Z,2.80
2022-11-30T06:34:30.992Z,2.80
2022-11-30T06:40:04.441Z,2.80
2022-11-30T06:45:02.785Z,2.80
2022-11-30T06:50:05.399Z,2.80
2022-11-30T06:55:09.380Z,2.80
2022-11-30T07:00:12.629Z,2.80
2022-11-30T07:05:15.321Z,2.90
2022-11-30T07:10:20.296Z,2.80
2022-11-30T07:15:23.101Z,2.90
2022-11-30T07:20:25.707Z,2.90
2022-11-30T07:25:47.996Z,3.00
2022-11-30T07:35:54.736Z,2.80
2022-11-30T07:56:07.249Z,2.70
2022-11-30T08:01:09.975Z,2.80
2022-11-30T08:06:15.251Z,3.00
2022-11-30T08:57:21.401Z,3.30
2022-11-30T09:02:24.025Z,3.40
2022-11-30T09:07:30.631Z,3.30
2022-11-30T09:12:37.292Z,3.50
2022-11-30T09:17:39.924Z,3.40
2022-11-30T09:58:06.699Z,4.00
2022-11-30T10:03:09.419Z,4.20
2022-11-30T10:08:12.268Z,4.10
2022-11-30T10:13:14.993Z,3.90
2022-11-30T10:18:17.685Z,4.00
2022-11-30T10:23:20.407Z,3.70
2022-11-30T10:43:53.067Z,4.20
2022-11-30T10:48:56.888Z,4.20
2022-11-30T10:54:00.132Z,4.00
2022-11-30T10:59:02.828Z,4.40
2022-11-30T11:04:05.665Z,4.50
2022-11-30T11:09:08.389Z,4.40
2022-11-30T11:14:11.113Z,4.40
2022-11-30T11:19:14.279Z,4.50
2022-11-30T11:24:19.953Z,4.70
2022-11-30T11:29:31.466Z,4.80
2022-11-30T11:34:34.689Z,4.90
2022-11-30T11:39:37.416Z,4.90
2022-11-30T11:44:42.638Z,5.10
2022-11-30T11:49:48.166Z,4.70
2022-11-30T11:54:51.029Z,4.60
2022-11-30T11:59:53.841Z,4.40
2022-11-30T12:04:57.624Z,4.40
2022-11-30T12:10:00.494Z,4.20
2022-11-30T12:15:03.314Z,4.20
2022-11-30T12:20:06.424Z,4.20
2022-11-30T12:25:10.504Z,4.30
2022-11-30T12:30:15.853Z,4.30
2022-11-30T12:35:18.628Z,4.20
2022-11-30T12:40:21.404Z,4.20
2022-11-30T12:45:24.028Z,4.20
2022-11-30T12:50:26.658Z,4.20
2022-11-30T12:55:29.312Z,4.30
2022-11-30T13:00:35.224Z,4.20
2022-11-30T13:05:37.989Z,4.20
2022-11-30T13:10:40.702Z,4.00
2022-11-30T13:15:44.352Z,4.10
2022-11-30T13:20:47.047Z,4.00
2022-11-30T13:31:12.932Z,4.00
2022-11-30T13:36:15.580Z,4.20
2022-11-30T13:41:18.180Z,4.20
2022-11-30T13:46:21.127Z,4.30
2022-11-30T13:51:23.798Z,4.50
2022-11-30T13:56:26.497Z,4.20
2022-11-30T14:06:49.576Z,4.00
2022-11-30T14:11:52.287Z,4.00
2022-11-30T14:16:54.985Z,3.90
2022-11-30T14:21:57.640Z,3.90
2022-11-30T14:27:00.324Z,3.80
2022-11-30T14:32:02.975Z,3.70
2022-11-30T14:37:06.068Z,3.70
2022-11-30T14:42:08.756Z,3.60
2022-11-30T14:47:12.504Z,3.40
2022-11-30T14:52:15.171Z,3.20
2022-11-30T14:57:18.114Z,3.20
2022-11-30T15:02:20.803Z,3.40
2022-11-30T15:07:24.494Z,3.30
2022-11-30T15:12:29.138Z,3.10
2022-11-30T15:17:32.620Z,3.00
2022-11-30T15:22:39.722Z,2.90
2022-11-30T15:27:42.756Z,3.00
2022-11-30T15:32:45.622Z,2.90
2022-11-30T15:37:48.389Z,2.90
2022-11-30T15:42:51.153Z,2.70
2022-11-30T15:47:54.474Z,2.60
2022-11-30T15:52:57.828Z,2.50
2022-11-30T15:58:00.679Z,2.60
2022-11-30T16:03:03.707Z,2.60
2022-11-30T16:08:06.606Z,2.60
2022-11-30T16:13:10.054Z,2.60
2022-11-30T16:18:13.721Z,2.40
2022-11-30T16:23:19.517Z,2.40
2022-11-30T16:28:33.504Z,2.40
2022-11-30T16:33:36.598Z,2.50
2022-11-30T16:38:39.209Z,2.40
2022-11-30T16:43:47.030Z,2.30
2022-11-30T16:48:50.879Z,2.40
2022-11-30T16:53:54.164Z,2.30
2022-11-30T16:58:57.785Z,2.30
2022-11-30T17:04:01.683Z,2.30
2022-11-30T17:09:07.571Z,2.10
2022-11-30T17:14:10.267Z,2.00
2022-11-30T17:19:13.002Z,2.00
2022-11-30T17:24:16.051Z,2.10
2022-11-30T17:29:20.089Z,2.00
2022-11-30T17:34:23.153Z,2.00
2022-11-30T17:39:26.176Z,2.20
2022-11-30T17:44:29.014Z,2.00
2022-11-30T17:49:32.741Z,2.00
2022-11-30T17:54:35.407Z,2.10
2022-11-30T17:59:44.893Z,2.00
2022-11-30T18:04:50.166Z,1.90
2022-11-30T18:09:53.125Z,2.00
2022-11-30T18:14:55.809Z,2.00
2022-11-30T18:19:59.455Z,2.10
2022-11-30T18:25:02.097Z,2.00
2022-11-30T18:30:09.967Z,2.10
2022-11-30T18:35:14.454Z,2.20
2022-11-30T18:40:18.023Z,2.30
2022-11-30T18:45:22.179Z,2.30
2022-11-30T18:50:24.862Z,2.10
2022-11-30T18:55:27.587Z,2.10
2022-11-30T19:00:31.120Z,2.00
2022-11-30T19:05:35.055Z,2.00
2022-11-30T19:10:37.673Z,2.00
2022-11-30T19:15:40.370Z,2.00
2022-11-30T19:20:43.029Z,2.00
2022-11-30T19:25:46.530Z,1.90
2022-11-30T19:30:50.143Z,2.00
2022-11-30T19:35:52.846Z,2.10
2022-11-30T19:40:55.807Z,2.10
2022-11-30T19:45:59.954Z,2.10
2022-11-30T19:51:03.675Z,2.30
2022-11-30T19:56:06.474Z,2.20
2022-11-30T20:01:09.844Z,2.10
2022-11-30T20:06:13.711Z,2.00
2022-11-30T20:11:17.157Z,2.00
2022-11-30T20:16:20.030Z,2.10
2022-11-30T20:21:23.076Z,2.20
2022-11-30T20:26:26.257Z,2.20
2022-11-30T20:31:29.222Z,2.30
2022-11-30T20:36:32.268Z,2.30
2022-11-30T20:41:35.253Z,2.40
2022-11-30T20:46:38.186Z,2.30
2022-11-30T20:51:41.865Z,2.40
2022-11-30T20:56:46.114Z,2.40
2022-11-30T21:01:51.364Z,2.30
2022-11-30T21:06:54.326Z,2.30
2022-11-30T21:11:57.069Z,2.20
2022-11-30T21:16:59.875Z,2.10
2022-11-30T21:22:06.654Z,2.10
2022-11-30T21:27:09.388Z,2.20
2022-11-30T21:32:12.108Z,2.10
2022-11-30T21:37:14.773Z,2.10
2022-11-30T21:42:17.398Z,2.20
2022-11-30T21:47:20.037Z,2.20
2022-11-30T21:52:22.600Z,2.10
2022-11-30T21:57:26.206Z,2.20
2022-11-30T22:02:28.923Z,2.10
2022-11-30T22:07:32.644Z,2.20
2022-11-30T22:12:35.520Z,2.20
